Time;durP1;ratioP1;P1;durP2;ratioP2;P2;SDS_P1;SDS_P2;PMS_P1;PMS_P2;Temp;Humidity;BMP_temperature;BMP_pressure;BME280_temperature;BME280_humidity;BME280_pressure;Samples;Min_cycle;Max_cycle;Signal;HPM_P1;HPM_P2
2023/08/05 00:00:08;;;;;;;7.65;2.95;;;;;;;;;;5032383;28;20056;-72
2023/08/05 00:02:34;;;;;;;4.68;3.20;;;;;;;;;;5031930;28;20029;-71
2023/08/05 00:04:59;;;;;;;9.70;3.10;;;;;;;;;;5032833;28;20026;-72
2023/08/05 00:07:24;;;;;;;9.68;3.45;;;;;;;;;;5031801;28;20155;-71
2023/08/05 00:09:52;;;;;;;7.65;2.95;;;;;;;;;;5032385;28;20048;-71
2023/08/05 00:12:17;;;;;;;9.70;2.95;;;;;;;;;;5032754;28;20040;-71
2023/08/05 00:14:42;;;;;;;7.60;2.78;;;;;;;;;;5032784;28;20021;-71
2023/08/05 00:17:07;;;;;;;11.45;3.17;;;;;;;;;;5032822;28;20021;-71
2023/08/05 00:19:33;;;;;;;6.95;3.85;;;;;;;;;;5031419;28;20029;-71
2023/08/05 00:21:58;;;;;;;9.38;3.15;;;;;;;;;;5031870;28;20037;-72
2023/08/05 00:24:23;;;;;;;9.95;2.72;;;;;;;;;;5037101;28;20390;-71
2023/08/05 00:26:51;;;;;;;6.78;3.83;;;;;;;;;;5036534;28;20080;-71
2023/08/05 00:29:16;;;;;;;7.80;3.38;;;;;;;;;;5036702;28;20086;-71
2023/08/05 00:31:42;;;;;;;9.32;2.75;;;;;;;;;;5036295;28;20429;-71
2023/08/05 00:34:07;;;;;;;4.95;3.00;;;;;;;;;;5036592;28;20029;-71
2023/08/05 00:36:32;;;;;;;8.30;2.90;;;;;;;;;;5037153;28;20032;-74
2023/08/05 00:38:57;;;;;;;7.20;2.95;;;;;;;;;;5036481;28;20498;-74
2023/08/05 00:41:23;;;;;;;3.80;2.95;;;;;;;;;;5034808;28;20025;-74
2023/08/05 00:43:48;;;;;;;5.57;2.40;;;;;;;;;;5036152;28;20395;-74
2023/08/05 00:46:13;;;;;;;7.35;3.67;;;;;;;;;;5036344;28;20025;-74
2023/08/05 00:48:39;;;;;;;8.32;3.03;;;;;;;;;;5035307;28;20051;-74
2023/08/05 00:51:05;;;;;;;7.97;4.35;;;;;;;;;;5036116;28;20105;-74
2023/08/05 00:53:31;;;;;;;12.65;4.72;;;;;;;;;;5034557;28;20080;-74
2023/08/05 00:55:57;;;;;;;9.13;3.25;;;;;;;;;;5034997;28;20179;-74
2023/08/05 00:58:22;;;;;;;4.90;3.22;;;;;;;;;;5035062;28;20527;-74
2023/08/05 01:00:48;;;;;;;10.60;2.90;;;;;;;;;;5035066;28;20380;-74
2023/08/05 01:03:13;;;;;;;7.50;2.80;;;;;;;;;;5034911;28;20033;-74
2023/08/05 01:05:39;;;;;;;7.88;3.08;;;;;;;;;;5034618;28;20036;-74
2023/08/05 01:08:05;;;;;;;4.80;2.65;;;;;;;;;;5035550;28;20029;-74
2023/08/05 01:10:31;;;;;;;7.13;2.47;;;;;;;;;;5034697;28;20026;-74
2023/08/05 01:12:56;;;;;;;6.63;3.38;;;;;;;;;;5034868;28;20033;-74
2023/08/05 01:15:21;;;;;;;9.52;2.85;;;;;;;;;;5034724;28;20091;-74
2023/08/05 01:17:47;;;;;;;7.90;3.05;;;;;;;;;;5035434;28;20090;-74
2023/08/05 01:20:13;;;;;;;7.53;3.10;;;;;;;;;;5035520;28;20060;-74
2023/08/05 01:22:43;;;;;;;8.18;2.90;;;;;;;;;;5034263;28;20033;-74
2023/08/05 01:25:24;;;;;;;7.72;2.58;;;;;;;;;;5035664;28;20033;-74
2023/08/05 01:27:50;;;;;;;6.70;2.75;;;;;;;;;;5034501;28;20029;-74
2023/08/05 01:30:15;;;;;;;7.68;2.75;;;;;;;;;;5034259;28;20017;-74
2023/08/05 01:32:40;;;;;;;3.97;2.42;;;;;;;;;;5034858;28;20399;-74
2023/08/05 01:35:06;;;;;;;5.35;2.80;;;;;;;;;;5035363;28;20049;-74
2023/08/05 01:37:32;;;;;;;5.40;3.00;;;;;;;;;;5034331;28;20504;-74
2023/08/05 01:39:57;;;;;;;9.73;3.08;;;;;;;;;;5035361;28;20033;-74
2023/08/05 01:42:22;;;;;;;5.43;3.20;;;;;;;;;;5035227;28;20021;-74
2023/08/05 01:44:47;;;;;;;3.95;2.03;;;;;;;;;;5034839;28;20455;-74
2023/08/05 01:47:13;;;;;;;4.93;2.70;;;;;;;;;;5035285;28;20037;-74
2023/08/05 01:49:38;;;;;;;6.43;2.92;;;;;;;;;;5035176;28;20032;-74
2023/08/05 01:52:04;;;;;;;9.40;3.70;;;;;;;;;;5035140;28;20022;-74
2023/08/05 01:54:29;;;;;;;4.53;2.92;;;;;;;;;;5035071;28;20022;-74
2023/08/05 01:56:54;;;;;;;8.05;2.78;;;;;;;;;;5034767;28;20064;-74
2023/08/05 01:59:19;;;;;;;7.05;3.25;;;;;;;;;;5034728;28;20025;-74
2023/08/05 02:01:46;;;;;;;6.70;2.83;;;;;;;;;;5034853;28;20029;-74
2023/08/05 02:04:11;;;;;;;7.25;2.97;;;;;;;;;;5033809;28;20076;-74
2023/08/05 02:06:37;;;;;;;5.55;2.53;;;;;;;;;;5034865;28;20497;-74
2023/08/05 02:09:03;;;;;;;5.78;2.40;;;;;;;;;;5033692;28;20106;-74
2023/08/05 02:11:28;;;;;;;4.72;2.50;;;;;;;;;;5034908;28;20155;-74
2023/08/05 02:13:53;;;;;;;4.28;2.08;;;;;;;;;;5034197;28;20372;-74
2023/08/05 02:16:19;;;;;;;8.55;2.90;;;;;;;;;;5033626;28;20036;-74
2023/08/05 02:18:45;;;;;;;5.95;2.72;;;;;;;;;;5034644;28;20103;-74
2023/08/05 02:21:10;;;;;;;5.80;2.60;;;;;;;;;;5034475;28;20476;-74
2023/08/05 02:23:36;;;;;;;4.18;2.75;;;;;;;;;;5032996;28;20030;-74
2023/08/05 02:26:02;;;;;;;3.70;2.88;;;;;;;;;;5034535;28;20041;-74
2023/08/05 02:28:27;;;;;;;4.47;2.75;;;;;;;;;;5034178;28;20021;-74
2023/08/05 02:30:53;;;;;;;4.47;2.50;;;;;;;;;;5034848;28;20068;-74
2023/08/05 02:33:18;;;;;;;3.10;2.03;;;;;;;;;;5033076;28;20436;-74
2023/08/05 02:35:43;;;;;;;5.65;2.10;;;;;;;;;;5034303;28;20399;-74
2023/08/05 02:38:08;;;;;;;4.22;2.53;;;;;;;;;;5032638;28;20037;-74
2023/08/05 02:40:34;;;;;;;5.80;2.80;;;;;;;;;;5034082;28;20025;-74
2023/08/05 02:42:59;;;;;;;4.55;2.00;;;;;;;;;;5034150;28;20379;-74
2023/08/05 02:45:24;;;;;;;5.60;2.78;;;;;;;;;;5033397;28;20064;-74
2023/08/05 02:47:50;;;;;;;3.72;2.10;;;;;;;;;;5032354;28;20075;-74
2023/08/05 02:50:15;;;;;;;7.35;2.80;;;;;;;;;;5033342;28;20032;-74
2023/08/05 02:52:40;;;;;;;4.45;2.67;;;;;;;;;;5034000;28;20125;-74
2023/08/05 02:55:06;;;;;;;3.95;2.63;;;;;;;;;;5016259;28;20022;-74
2023/08/05 02:57:31;;;;;;;4.18;2.60;;;;;;;;;;5033879;28;20421;-74
2023/08/05 02:59:56;;;;;;;5.50;3.42;;;;;;;;;;5032306;28;20104;-74
2023/08/05 03:02:22;;;;;;;6.78;1.88;;;;;;;;;;5033758;28;20399;-74
2023/08/05 03:04:47;;;;;;;4.25;2.78;;;;;;;;;;5033830;28;20029;-74
2023/08/05 03:07:12;;;;;;;5.03;2.50;;;;;;;;;;5034299;28;20104;-74
2023/08/05 03:09:37;;;;;;;8.13;2.88;;;;;;;;;;5033620;28;20032;-74
2023/08/05 03:12:07;;;;;;;3.72;2.20;;;;;;;;;;5031873;28;20020;-74
2023/08/05 03:14:33;;;;;;;3.92;2.80;;;;;;;;;;5032410;28;20029;-74
2023/08/05 03:16:58;;;;;;;4.32;3.08;;;;;;;;;;5012634;28;20018;-74
2023/08/05 03:19:24;;;;;;;3.13;1.92;;;;;;;;;;5024063;28;20419;-74
2023/08/05 03:21:49;;;;;;;4.20;2.53;;;;;;;;;;5031921;28;20080;-74
2023/08/05 03:24:14;;;;;;;4.97;2.40;;;;;;;;;;5033861;28;20017;-74
2023/08/05 03:26:39;;;;;;;3.83;2.65;;;;;;;;;;5033416;28;20029;-74
2023/08/05 03:29:05;;;;;;;5.95;2.75;;;;;;;;;;5033496;28;20034;-74
2023/08/05 03:31:30;;;;;;;6.20;2.65;;;;;;;;;;5033317;28;20021;-74
2023/08/05 03:33:55;;;;;;;4.88;2.25;;;;;;;;;;5032840;28;20493;-74
2023/08/05 03:36:21;;;;;;;8.25;2.67;;;;;;;;;;5032200;28;20555;-74
2023/08/05 03:38:46;;;;;;;4.28;2.63;;;;;;;;;;5033115;28;20032;-74
2023/08/05 03:41:11;;;;;;;5.68;2.90;;;;;;;;;;5033121;28;20052;-74
2023/08/05 03:43:36;;;;;;;5.60;2.53;;;;;;;;;;5033122;28;20071;-74
2023/08/05 03:46:02;;;;;;;4.38;2.65;;;;;;;;;;5032652;28;20036;-74
2023/08/05 03:48:27;;;;;;;3.67;2.38;;;;;;;;;;5033188;28;20391;-74
2023/08/05 03:50:52;;;;;;;3.88;3.05;;;;;;;;;;5033091;28;20029;-74
2023/08/05 03:53:18;;;;;;;3.47;2.47;;;;;;;;;;5033053;28;20104;-74
2023/08/05 03:55:43;;;;;;;3.70;2.33;;;;;;;;;;5031462;28;20078;-74
2023/08/05 03:58:08;;;;;;;6.00;2.40;;;;;;;;;;5032497;28;20028;-74
2023/08/05 04:00:36;;;;;;;5.85;3.42;;;;;;;;;;5032679;28;20030;-74
2023/08/05 04:03:01;;;;;;;3.90;3.33;;;;;;;;;;5031808;28;20029;-74
2023/08/05 04:05:27;;;;;;;4.13;2.78;;;;;;;;;;5033153;28;20028;-74
2023/08/05 04:07:53;;;;;;;5.47;2.85;;;;;;;;;;5031661;28;20483;-74
2023/08/05 04:10:22;;;;;;;4.63;2.47;;;;;;;;;;5032353;28;20025;-74
2023/08/05 04:12:47;;;;;;;5.03;2.75;;;;;;;;;;5032769;28;20084;-74
2023/08/05 04:15:13;;;;;;;5.30;2.95;;;;;;;;;;5031742;28;20033;-74
2023/08/05 04:17:38;;;;;;;4.78;2.60;;;;;;;;;;5031460;28;20414;-74
2023/08/05 04:20:04;;;;;;;3.03;2.25;;;;;;;;;;5032533;28;20028;-74
2023/08/05 04:22:30;;;;;;;5.90;2.80;;;;;;;;;;5116068;22;20038;-74
2023/08/05 04:24:57;;;;;;;5.90;2.95;;;;;;;;;;5012580;28;20084;-75
2023/08/05 04:27:22;;;;;;;6.55;3.10;;;;;;;;;;5012268;28;20030;-76
2023/08/05 04:29:48;;;;;;;3.78;2.45;;;;;;;;;;5012144;28;20024;-76
2023/08/05 04:32:14;;;;;;;4.55;2.60;;;;;;;;;;5013373;28;20033;-76
2023/08/05 04:34:39;;;;;;;3.45;2.45;;;;;;;;;;5011511;28;20032;-74
2023/08/05 04:37:37;;;;;;;4.15;2.92;;;;;;;;;;5013225;28;20056;-74
2023/08/05 04:40:02;;;;;;;4.90;2.63;;;;;;;;;;4990724;28;20074;-76
2023/08/05 04:42:28;;;;;;;3.45;2.90;;;;;;;;;;5012156;28;20369;-76
2023/08/05 04:44:54;;;;;;;4.25;2.50;;;;;;;;;;5013275;28;20030;-74
2023/08/05 04:47:20;;;;;;;3.63;2.30;;;;;;;;;;4995304;28;20030;-74
2023/08/05 04:49:45;;;;;;;6.07;2.28;;;;;;;;;;4995381;28;20030;-74
2023/08/05 04:52:12;;;;;;;3.40;2.45;;;;;;;;;;5013080;28;20033;-74
2023/08/05 04:54:44;;;;;;;7.20;3.03;;;;;;;;;;5011782;28;20037;-74
2023/08/05 04:57:10;;;;;;;6.55;3.00;;;;;;;;;;5011828;28;20026;-74
2023/08/05 04:59:35;;;;;;;4.47;2.90;;;;;;;;;;5011831;28;20026;-74
2023/08/05 05:02:00;;;;;;;5.85;3.05;;;;;;;;;;5011348;28;20029;-74
2023/08/05 05:04:26;;;;;;;4.22;2.40;;;;;;;;;;5011692;28;20045;-74
2023/08/05 05:06:51;;;;;;;6.95;3.45;;;;;;;;;;5011680;28;20026;-74
2023/08/05 05:09:17;;;;;;;5.85;3.10;;;;;;;;;;5015570;28;20483;-74
2023/08/05 05:11:42;;;;;;;4.45;2.50;;;;;;;;;;5016592;28;20396;-76
2023/08/05 05:14:07;;;;;;;5.72;3.42;;;;;;;;;;5015142;28;20021;-75
2023/08/05 05:16:33;;;;;;;6.55;2.95;;;;;;;;;;5015888;28;20026;-74
2023/08/05 05:18:58;;;;;;;4.20;3.30;;;;;;;;;;4998936;28;20057;-74
2023/08/05 05:21:23;;;;;;;8.70;3.55;;;;;;;;;;5015063;28;20510;-74
2023/08/05 05:23:49;;;;;;;7.30;3.17;;;;;;;;;;5021954;23;20095;-74
2023/08/05 05:26:14;;;;;;;7.57;3.65;;;;;;;;;;5034858;28;20033;-75
2023/08/05 05:28:39;;;;;;;7.68;3.00;;;;;;;;;;5036507;28;20049;-74
2023/08/05 05:31:04;;;;;;;7.50;3.25;;;;;;;;;;5018316;28;20519;-74
2023/08/05 05:33:32;;;;;;;5.60;3.00;;;;;;;;;;5034494;28;20540;-74
2023/08/05 05:35:57;;;;;;;9.73;2.97;;;;;;;;;;5034688;28;20032;-74
2023/08/05 05:38:23;;;;;;;5.63;2.97;;;;;;;;;;5018045;28;20399;-74
2023/08/05 05:40:48;;;;;;;7.22;3.67;;;;;;;;;;5033821;28;20104;-74
2023/08/05 05:43:13;;;;;;;6.20;3.22;;;;;;;;;;5034273;28;20026;-75
2023/08/05 05:45:39;;;;;;;5.07;3.33;;;;;;;;;;5034292;28;20024;-74
2023/08/05 05:48:05;;;;;;;6.97;2.92;;;;;;;;;;5034139;28;20079;-74
2023/08/05 05:50:30;;;;;;;5.55;3.20;;;;;;;;;;5034554;28;20463;-75
2023/08/05 05:52:55;;;;;;;5.20;3.45;;;;;;;;;;5034278;28;20029;-75
2023/08/05 05:55:21;;;;;;;7.30;3.97;;;;;;;;;;5029100;28;20028;-74
2023/08/05 05:57:48;;;;;;;6.00;2.78;;;;;;;;;;5021731;28;20438;-74
2023/08/05 06:00:14;;;;;;;5.10;3.15;;;;;;;;;;5015529;28;20377;-75
2023/08/05 06:02:40;;;;;;;6.95;3.80;;;;;;;;;;5018564;28;20435;-75
2023/08/05 06:05:06;;;;;;;7.95;3.35;;;;;;;;;;5029810;28;20087;-75
2023/08/05 06:07:31;;;;;;;6.88;4.05;;;;;;;;;;5033645;28;20032;-75
2023/08/05 06:09:56;;;;;;;8.75;3.78;;;;;;;;;;5010921;28;20029;-75
2023/08/05 06:12:24;;;;;;;7.70;3.47;;;;;;;;;;5024417;28;20030;-75
2023/08/05 06:14:49;;;;;;;8.90;3.80;;;;;;;;;;5034497;28;20071;-75
2023/08/05 06:17:15;;;;;;;7.15;3.03;;;;;;;;;;5033951;28;20434;-76
2023/08/05 06:19:40;;;;;;;5.63;3.20;;;;;;;;;;5033902;28;20120;-75
2023/08/05 06:22:05;;;;;;;4.95;2.53;;;;;;;;;;5033557;28;20395;-75
2023/08/05 06:24:31;;;;;;;5.97;3.15;;;;;;;;;;5034248;28;20029;-75
2023/08/05 06:26:56;;;;;;;6.45;3.08;;;;;;;;;;5035062;28;20029;-75
2023/08/05 06:29:21;;;;;;;5.00;2.70;;;;;;;;;;5033162;28;20022;-74
2023/08/05 06:31:46;;;;;;;4.78;2.78;;;;;;;;;;5034912;28;20032;-74
2023/08/05 06:34:12;;;;;;;4.93;2.92;;;;;;;;;;5033567;28;20025;-74
2023/08/05 06:36:37;;;;;;;6.22;2.60;;;;;;;;;;5034968;28;20378;-74
2023/08/05 06:39:03;;;;;;;4.63;2.63;;;;;;;;;;5033593;28;20029;-74
2023/08/05 06:41:28;;;;;;;4.70;3.00;;;;;;;;;;5033199;28;20021;-74
2023/08/05 06:43:53;;;;;;;5.82;2.17;;;;;;;;;;5033298;28;20381;-74
2023/08/05 06:46:19;;;;;;;3.33;2.55;;;;;;;;;;5033617;28;20025;-74
2023/08/05 06:48:45;;;;;;;3.65;2.50;;;;;;;;;;5032874;28;20399;-74
2023/08/05 06:51:10;;;;;;;9.40;2.53;;;;;;;;;;5033592;28;20017;-74
2023/08/05 06:53:39;;;;;;;6.07;2.78;;;;;;;;;;5033336;28;20151;-74
2023/08/05 06:56:05;;;;;;;7.00;2.85;;;;;;;;;;5033316;28;20029;-74
2023/08/05 06:58:30;;;;;;;4.70;2.60;;;;;;;;;;5032879;28;20032;-74
2023/08/05 07:00:56;;;;;;;3.53;2.85;;;;;;;;;;5016686;28;20493;-74
2023/08/05 07:03:23;;;;;;;7.85;2.97;;;;;;;;;;5033167;28;20068;-74
2023/08/05 07:05:48;;;;;;;4.07;2.30;;;;;;;;;;5033153;28;20029;-74
2023/08/05 07:08:14;;;;;;;5.45;2.70;;;;;;;;;;5032408;28;20040;-74
2023/08/05 07:10:39;;;;;;;6.80;2.80;;;;;;;;;;5033075;28;20022;-74
2023/08/05 07:13:06;;;;;;;3.88;2.08;;;;;;;;;;5033939;28;20413;-74
2023/08/05 07:15:36;;;;;;;3.70;2.85;;;;;;;;;;5032663;28;20025;-74
2023/08/05 07:18:01;;;;;;;4.63;2.63;;;;;;;;;;5033895;28;20040;-74
2023/08/05 07:20:27;;;;;;;5.22;2.72;;;;;;;;;;5031895;28;20551;-75
2023/08/05 07:22:52;;;;;;;3.75;2.83;;;;;;;;;;5040587;23;20071;-74
2023/08/05 07:25:17;;;;;;;3.08;2.00;;;;;;;;;;5033430;28;20494;-74
2023/08/05 07:27:43;;;;;;;2.92;2.25;;;;;;;;;;5014433;28;20033;-75
2023/08/05 07:30:08;;;;;;;4.22;2.70;;;;;;;;;;5008457;28;20034;-75
2023/08/05 07:32:34;;;;;;;5.00;2.45;;;;;;;;;;5014618;28;20022;-74
2023/08/05 07:34:59;;;;;;;3.72;2.33;;;;;;;;;;5015267;28;20099;-74
2023/08/05 07:37:24;;;;;;;5.45;2.88;;;;;;;;;;4999204;28;20402;-74
2023/08/05 07:39:50;;;;;;;6.55;2.72;;;;;;;;;;5032918;28;20047;-76
2023/08/05 07:42:15;;;;;;;4.30;2.20;;;;;;;;;;5032557;28;20534;-75
2023/08/05 07:44:42;;;;;;;5.05;2.67;;;;;;;;;;5015496;28;20055;-74
2023/08/05 07:47:08;;;;;;;4.93;2.90;;;;;;;;;;5015878;28;20025;-75
2023/08/05 07:49:34;;;;;;;3.55;1.98;;;;;;;;;;5014597;28;20052;-73
2023/08/05 07:51:59;;;;;;;5.55;2.58;;;;;;;;;;5014929;28;20467;-73
2023/08/05 07:54:25;;;;;;;4.15;2.22;;;;;;;;;;5033105;28;20026;-73
2023/08/05 07:56:52;;;;;;;4.70;1.92;;;;;;;;;;5033060;28;20372;-74
2023/08/05 07:59:19;;;;;;;4.75;2.47;;;;;;;;;;5015478;28;20558;-73
2023/08/05 08:01:46;;;;;;;3.72;2.17;;;;;;;;;;5000461;28;20421;-72
2023/08/05 08:04:14;;;;;;;3.92;2.85;;;;;;;;;;4995694;28;20056;-72
2023/08/05 08:06:42;;;;;;;4.88;2.30;;;;;;;;;;5024838;28;20625;-72
2023/08/05 08:09:07;;;;;;;4.55;2.40;;;;;;;;;;5015222;28;20056;-73
2023/08/05 08:11:33;;;;;;;5.53;2.30;;;;;;;;;;5032802;28;20104;-73
2023/08/05 08:13:58;;;;;;;4.38;2.50;;;;;;;;;;5014543;28;20072;-73
2023/08/05 08:16:23;;;;;;;3.90;2.03;;;;;;;;;;4995282;28;20456;-74
2023/08/05 08:18:48;;;;;;;5.30;2.60;;;;;;;;;;5012920;28;20029;-73
2023/08/05 08:21:14;;;;;;;5.53;2.40;;;;;;;;;;4995314;28;20023;-73
2023/08/05 08:23:39;;;;;;;4.50;2.45;;;;;;;;;;4995500;28;20570;-73
2023/08/05 08:26:04;;;;;;;6.43;2.85;;;;;;;;;;5012598;28;20033;-74
2023/08/05 08:28:30;;;;;;;4.60;2.40;;;;;;;;;;5013179;28;20026;-76
2023/08/05 08:30:57;;;;;;;3.42;2.10;;;;;;;;;;4979155;28;20168;-76
2023/08/05 08:33:23;;;;;;;5.55;2.58;;;;;;;;;;4995525;28;20037;-76
2023/08/05 08:35:49;;;;;;;3.80;2.30;;;;;;;;;;4995173;28;20022;-76
2023/08/05 08:38:15;;;;;;;4.00;2.30;;;;;;;;;;4995586;28;20034;-76
2023/08/05 08:40:51;;;;;;;3.97;2.20;;;;;;;;;;4979312;28;20018;-76
2023/08/05 08:43:21;;;;;;;3.95;2.30;;;;;;;;;;4980630;28;20088;-76
2023/08/05 08:45:50;;;;;;;8.25;2.63;;;;;;;;;;4983109;28;20026;-74
2023/08/05 08:48:16;;;;;;;3.42;2.85;;;;;;;;;;5000082;28;20041;-77
2023/08/05 08:50:42;;;;;;;7.38;2.30;;;;;;;;;;4999432;28;20391;-75
2023/08/05 08:53:13;;;;;;;4.60;2.38;;;;;;;;;;4999705;28;20028;-75
2023/08/05 08:55:42;;;;;;;5.57;2.50;;;;;;;;;;5006689;28;20044;-76
2023/08/05 08:58:09;;;;;;;3.78;2.03;;;;;;;;;;4983003;28;20025;-75
2023/08/05 09:00:35;;;;;;;5.00;2.20;;;;;;;;;;4998792;28;20022;-77
2023/08/05 09:03:01;;;;;;;3.70;1.90;;;;;;;;;;4999367;28;20056;-75
2023/08/05 09:05:34;;;;;;;4.40;2.20;;;;;;;;;;4982884;28;20113;-76
2023/08/05 09:08:03;;;;;;;4.90;2.42;;;;;;;;;;5001492;28;20030;-76
2023/08/05 09:10:28;;;;;;;5.68;2.30;;;;;;;;;;5019907;28;20077;-77
2023/08/05 09:12:57;;;;;;;5.45;2.28;;;;;;;;;;5036835;28;20056;-77
2023/08/05 09:15:30;;;;;;;5.07;2.38;;;;;;;;;;5003067;28;20021;-77
2023/08/05 09:17:56;;;;;;;2.92;2.30;;;;;;;;;;5019062;28;20028;-77
2023/08/05 09:20:24;;;;;;;3.45;2.40;;;;;;;;;;5018958;28;20025;-77
2023/08/05 09:23:10;;;;;;;3.58;2.03;;;;;;;;;;5021816;23;20124;-77
2023/08/05 09:25:40;;;;;;;3.45;1.60;;;;;;;;;;5015325;28;20461;-77
2023/08/05 09:28:06;;;;;;;4.03;1.90;;;;;;;;;;5015682;28;20399;-77
2023/08/05 09:30:33;;;;;;;3.25;2.20;;;;;;;;;;5014974;28;20014;-77
2023/08/05 09:32:58;;;;;;;4.68;2.50;;;;;;;;;;5014905;28;20022;-77
2023/08/05 09:35:25;;;;;;;5.70;2.00;;;;;;;;;;5015392;28;20041;-77
2023/08/05 09:37:52;;;;;;;3.17;2.00;;;;;;;;;;4998820;28;20033;-77
2023/08/05 09:40:28;;;;;;;3.33;2.10;;;;;;;;;;5015345;28;20033;-77
2023/08/05 09:42:59;;;;;;;4.57;2.50;;;;;;;;;;5014729;28;20030;-77
2023/08/05 09:45:25;;;;;;;4.63;2.40;;;;;;;;;;5014858;28;20040;-77
2023/08/05 09:48:00;;;;;;;2.92;2.00;;;;;;;;;;5014996;28;20392;-77
2023/08/05 09:50:26;;;;;;;5.18;1.85;;;;;;;;;;5013549;28;20103;-77
2023/08/05 09:52:57;;;;;;;3.55;2.10;;;;;;;;;;5013596;28;20084;-77
2023/08/05 09:55:22;;;;;;;;;;;;;;;;;;5014996;28;20424;-77
2023/08/05 09:57:47;;;;;;;5.77;2.40;;;;;;;;;;5014808;28;20006;-77
2023/08/05 10:00:14;;;;;;;4.85;2.17;;;;;;;;;;5010622;28;20014;-76
2023/08/05 10:02:41;;;;;;;7.43;2.20;;;;;;;;;;4994956;28;20045;-75
2023/08/05 10:05:09;;;;;;;3.38;1.88;;;;;;;;;;4994824;28;20432;-75
2023/08/05 10:07:35;;;;;;;2.00;1.70;;;;;;;;;;5011516;28;20026;-75
2023/08/05 10:10:01;;;;;;;3.10;1.60;;;;;;;;;;5034270;28;20136;-75
2023/08/05 10:12:30;;;;;;;2.08;1.52;;;;;;;;;;5034181;28;20391;-75
2023/08/05 10:14:57;;;;;;;3.22;2.08;;;;;;;;;;5026816;28;20057;-76
2023/08/05 10:17:23;;;;;;;3.22;2.10;;;;;;;;;;5014502;28;20041;-77
2023/08/05 10:19:52;;;;;;;2.55;1.90;;;;;;;;;;5014202;28;20022;-77
2023/08/05 10:22:25;;;;;;;2.70;1.85;;;;;;;;;;4997558;28;20022;-77
2023/08/05 10:24:58;;;;;;;2.80;1.83;;;;;;;;;;5044248;23;20076;-75
2023/08/05 10:27:41;;;;;;;4.47;2.15;;;;;;;;;;5034601;28;20105;-75
2023/08/05 10:30:07;;;;;;;3.25;1.80;;;;;;;;;;5033335;28;20466;-75
2023/08/05 10:32:33;;;;;;;3.47;2.38;;;;;;;;;;5034495;28;20514;-75
2023/08/05 10:35:30;;;;;;;5.30;2.30;;;;;;;;;;5034038;28;20029;-75
2023/08/05 10:38:16;;;;;;;2.25;1.83;;;;;;;;;;5032814;28;20026;-73
2023/08/05 10:41:00;;;;;;;4.53;2.20;;;;;;;;;;5033017;28;20026;-73
2023/08/05 10:43:31;;;;;;;4.15;2.05;;;;;;;;;;5033201;28;20025;-72
2023/08/05 10:46:01;;;;;;;5.60;2.22;;;;;;;;;;5029474;28;20029;-73
2023/08/05 10:48:31;;;;;;;4.32;2.22;;;;;;;;;;5015508;28;20026;-72
2023/08/05 10:50:57;;;;;;;2.25;1.50;;;;;;;;;;5013056;28;20396;-73
2023/08/05 10:53:23;;;;;;;3.05;2.20;;;;;;;;;;5012901;28;20104;-72
2023/08/05 10:55:50;;;;;;;5.25;2.25;;;;;;;;;;5013723;28;20041;-72
2023/08/05 10:58:21;;;;;;;3.92;2.05;;;;;;;;;;5016173;28;20475;-72
2023/08/05 11:00:55;;;;;;;2.95;2.40;;;;;;;;;;5033357;28;20029;-72
2023/08/05 11:03:25;;;;;;;4.68;2.20;;;;;;;;;;5033822;28;20029;-73
2023/08/05 11:05:51;;;;;;;2.55;2.13;;;;;;;;;;5033147;28;20221;-72
2023/08/05 11:08:25;;;;;;;2.70;2.10;;;;;;;;;;5032437;28;20014;-72
2023/08/05 11:10:51;;;;;;;4.97;2.20;;;;;;;;;;5033935;28;20030;-72
2023/08/05 11:13:16;;;;;;;3.17;2.20;;;;;;;;;;5032315;28;20124;-72
2023/08/05 11:15:42;;;;;;;4.60;2.58;;;;;;;;;;5031958;28;20017;-72
2023/08/05 11:18:08;;;;;;;4.88;2.10;;;;;;;;;;5033595;28;20021;-72
2023/08/05 11:20:33;;;;;;;3.13;2.30;;;;;;;;;;5033426;28;20041;-72
2023/08/05 11:23:01;;;;;;;2.63;1.70;;;;;;;;;;5031940;28;20399;-72
2023/08/05 11:25:26;;;;;;;5.13;2.15;;;;;;;;;;5031916;28;20036;-72
2023/08/05 11:27:53;;;;;;;3.20;2.40;;;;;;;;;;5033494;28;20029;-72
2023/08/05 11:30:19;;;;;;;3.95;2.17;;;;;;;;;;5015842;28;20025;-72
2023/08/05 11:33:01;;;;;;;4.50;1.98;;;;;;;;;;5015628;28;20399;-72
2023/08/05 11:35:27;;;;;;;4.78;2.65;;;;;;;;;;5016139;28;20021;-72
2023/08/05 11:37:53;;;;;;;4.07;2.65;;;;;;;;;;5031644;28;20087;-75
2023/08/05 11:40:18;;;;;;;3.38;2.35;;;;;;;;;;5033586;28;20025;-74
2023/08/05 11:42:44;;;;;;;3.47;2.70;;;;;;;;;;5033468;28;20027;-75
2023/08/05 11:45:11;;;;;;;2.58;1.90;;;;;;;;;;5033678;28;20116;-75
2023/08/05 11:47:37;;;;;;;4.15;1.92;;;;;;;;;;5015101;28;20403;-75
2023/08/05 11:50:03;;;;;;;2.78;2.35;;;;;;;;;;5032397;28;20026;-75
2023/08/05 11:52:28;;;;;;;3.20;2.17;;;;;;;;;;5033480;28;20108;-74
2023/08/05 11:54:58;;;;;;;4.18;2.10;;;;;;;;;;5032017;28;20021;-74
2023/08/05 11:57:23;;;;;;;3.83;2.38;;;;;;;;;;5031764;28;20032;-75
2023/08/05 11:59:49;;;;;;;3.08;1.45;;;;;;;;;;5032015;28;20400;-74
2023/08/05 12:02:16;;;;;;;3.38;2.08;;;;;;;;;;5031924;28;20022;-74
2023/08/05 12:04:49;;;;;;;4.72;2.35;;;;;;;;;;5031827;28;20033;-74
2023/08/05 12:07:19;;;;;;;3.25;2.20;;;;;;;;;;5031443;28;20025;-75
2023/08/05 12:09:45;;;;;;;4.20;2.40;;;;;;;;;;5031884;28;20025;-75
2023/08/05 12:12:29;;;;;;;10.65;5.15;;;;;;;;;;5031863;28;20017;-74
2023/08/05 12:15:10;;;;;;;4.13;1.83;;;;;;;;;;5031138;28;20075;-72
2023/08/05 12:17:36;;;;;;;3.30;2.20;;;;;;;;;;5034835;28;20025;-72
2023/08/05 12:20:01;;;;;;;5.93;2.00;;;;;;;;;;5035784;28;20383;-72
2023/08/05 12:22:26;;;;;;;4.22;2.53;;;;;;;;;;5035150;28;20075;-72
2023/08/05 12:24:52;;;;;;;3.17;2.28;;;;;;;;;;5036661;28;20034;-72
2023/08/05 12:27:17;;;;;;;3.72;2.30;;;;;;;;;;5036806;28;20033;-73
2023/08/05 12:29:43;;;;;;;5.45;2.30;;;;;;;;;;5036946;28;20037;-74
2023/08/05 12:32:08;;;;;;;5.90;2.25;;;;;;;;;;5036584;28;20073;-75
2023/08/05 12:34:33;;;;;;;4.13;2.33;;;;;;;;;;5035201;28;20029;-75
2023/08/05 12:36:59;;;;;;;2.95;2.05;;;;;;;;;;5036752;28;20090;-74
2023/08/05 12:39:24;;;;;;;3.25;2.53;;;;;;;;;;5036927;28;20032;-75
2023/08/05 12:41:49;;;;;;;3.42;2.33;;;;;;;;;;5036769;28;20498;-74
2023/08/05 12:44:14;;;;;;;7.10;2.38;;;;;;;;;;5035996;28;20147;-75
2023/08/05 12:46:40;;;;;;;3.55;1.95;;;;;;;;;;5036663;28;20435;-74
2023/08/05 12:49:05;;;;;;;4.95;2.80;;;;;;;;;;5037011;28;20022;-75
2023/08/05 12:51:30;;;;;;;5.07;2.05;;;;;;;;;;5036570;28;20112;-74
2023/08/05 12:53:55;;;;;;;3.63;2.20;;;;;;;;;;5036456;28;20026;-74
2023/08/05 12:56:21;;;;;;;3.35;2.40;;;;;;;;;;5035406;28;20030;-74
2023/08/05 12:58:46;;;;;;;9.45;2.72;;;;;;;;;;5035971;28;20029;-74
2023/08/05 13:01:12;;;;;;;4.85;3.20;;;;;;;;;;5036272;28;20040;-74
2023/08/05 13:03:37;;;;;;;2.85;2.13;;;;;;;;;;5036310;28;20024;-74
2023/08/05 13:06:02;;;;;;;4.13;2.40;;;;;;;;;;5034953;28;20029;-74
2023/08/05 13:08:27;;;;;;;4.50;2.80;;;;;;;;;;5035761;28;20537;-75
2023/08/05 13:10:55;;;;;;;4.88;2.50;;;;;;;;;;5036409;28;20030;-74
2023/08/05 13:13:20;;;;;;;3.22;2.28;;;;;;;;;;5036098;28;20040;-74
2023/08/05 13:15:45;;;;;;;5.78;2.58;;;;;;;;;;5036014;28;20021;-74
2023/08/05 13:18:10;;;;;;;3.95;2.67;;;;;;;;;;5035461;28;20121;-74
2023/08/05 13:20:36;;;;;;;7.70;3.58;;;;;;;;;;5036054;28;20024;-74
2023/08/05 13:23:01;;;;;;;5.25;2.53;;;;;;;;;;5035835;28;20430;-74
2023/08/05 13:25:26;;;;;;;5.00;2.88;;;;;;;;;;5036324;28;20052;-74
2023/08/05 13:27:52;;;;;;;4.65;2.55;;;;;;;;;;5035752;28;20018;-74
2023/08/05 13:30:17;;;;;;;6.13;2.80;;;;;;;;;;5034618;28;20475;-74
2023/08/05 13:32:42;;;;;;;3.28;2.60;;;;;;;;;;5035591;28;20021;-74
2023/08/05 13:35:08;;;;;;;5.82;2.38;;;;;;;;;;5035985;28;20045;-74
2023/08/05 13:37:34;;;;;;;5.07;2.50;;;;;;;;;;5034623;28;20533;-71
2023/08/05 13:39:59;;;;;;;4.03;2.58;;;;;;;;;;5034024;28;20539;-68
2023/08/05 13:42:24;;;;;;;3.42;2.28;;;;;;;;;;5034725;28;20116;-68
2023/08/05 13:44:50;;;;;;;3.85;2.50;;;;;;;;;;5035113;28;20029;-68
2023/08/05 13:47:15;;;;;;;8.07;2.97;;;;;;;;;;5035374;28;20395;-68
2023/08/05 13:49:40;;;;;;;6.03;3.22;;;;;;;;;;5035369;28;20032;-67
2023/08/05 13:52:06;;;;;;;9.52;3.33;;;;;;;;;;5035018;28;20056;-68
2023/08/05 13:54:31;;;;;;;4.65;2.05;;;;;;;;;;5033635;28;20372;-68
2023/08/05 13:56:56;;;;;;;5.95;3.60;;;;;;;;;;5034346;28;20025;-68
2023/08/05 13:59:22;;;;;;;5.05;2.90;;;;;;;;;;5034994;28;20017;-67
2023/08/05 14:01:47;;;;;;;5.75;3.28;;;;;;;;;;5035052;28;20036;-68
2023/08/05 14:04:12;;;;;;;6.35;3.53;;;;;;;;;;5034854;28;20029;-67
2023/08/05 14:06:38;;;;;;;5.60;3.13;;;;;;;;;;5034844;28;20575;-67
2023/08/05 14:09:07;;;;;;;4.53;3.13;;;;;;;;;;5034516;28;20025;-69
2023/08/05 14:11:33;;;;;;;8.43;2.95;;;;;;;;;;5034809;28;20427;-68
2023/08/05 14:13:58;;;;;;;6.90;3.08;;;;;;;;;;5034578;28;20037;-68
2023/08/05 14:16:23;;;;;;;5.88;3.25;;;;;;;;;;5034649;28;20029;-68
2023/08/05 14:18:49;;;;;;;5.63;2.45;;;;;;;;;;5034014;28;20440;-70
2023/08/05 14:21:14;;;;;;;3.50;2.47;;;;;;;;;;5021467;28;20022;-68
2023/08/05 14:23:39;;;;;;;4.53;2.65;;;;;;;;;;5022282;28;20017;-69
2023/08/05 14:26:05;;;;;;;5.03;2.90;;;;;;;;;;5027202;28;20029;-68
2023/08/05 14:28:31;;;;;;;5.10;2.80;;;;;;;;;;5019536;28;20029;-68
2023/08/05 14:31:03;;;;;;;3.25;2.55;;;;;;;;;;5030854;28;20028;-68
2023/08/05 14:33:28;;;;;;;3.88;2.58;;;;;;;;;;5034147;28;20029;-68
2023/08/05 14:35:54;;;;;;;5.15;2.78;;;;;;;;;;5034288;28;20017;-70
2023/08/05 14:38:19;;;;;;;5.18;2.70;;;;;;;;;;5034517;28;20472;-71